Time;durP1;ratioP1;P1;durP2;ratioP2;P2;SDS_P1;SDS_P2;PMS_P1;PMS_P2;Temp;Humidity;BMP_temperature;BMP_pressure;BME280_temperature;BME280_humidity;BME280_pressure;Samples;Min_cycle;Max_cycle;Signal;HPM_P1;HPM_P2
2023/08/07 00:00:31;;;;;;;4.10;2.30;;;10.90;99.90;;;;;;6306722;22;20152;-37
2023/08/07 00:02:56;;;;;;;3.77;2.30;;;10.80;99.90;;;;;;6307245;22;20178;-38
2023/08/07 00:05:22;;;;;;;4.40;2.10;;;10.80;99.90;;;;;;6307933;22;20170;-38
2023/08/07 00:07:48;;;;;;;4.97;3.07;;;10.80;99.90;;;;;;6307023;22;20253;-38
2023/08/07 00:10:14;;;;;;;3.97;2.17;;;10.80;99.90;;;;;;6279667;22;20195;-40
2023/08/07 00:12:40;;;;;;;3.67;2.07;;;10.80;99.90;;;;;;6307458;22;20203;-39
2023/08/07 00:15:06;;;;;;;2.90;2.00;;;10.80;99.90;;;;;;6310292;22;20389;-38
2023/08/07 00:17:32;;;;;;;2.53;1.87;;;10.80;99.90;;;;;;6280895;22;20482;-38
2023/08/07 00:19:57;;;;;;;3.77;2.00;;;10.80;99.90;;;;;;6308951;22;20389;-37
2023/08/07 00:22:25;;;;;;;2.63;2.20;;;10.80;99.90;;;;;;6307126;22;20547;-38
2023/08/07 00:24:50;;;;;;;5.00;2.73;;;10.80;99.90;;;;;;6308466;22;20159;-38
2023/08/07 00:27:16;;;;;;;3.80;1.80;;;10.70;99.90;;;;;;6307985;22;20765;-38
2023/08/07 00:29:42;;;;;;;3.50;1.90;;;10.70;99.90;;;;;;6257340;22;20190;-39
2023/08/07 00:32:10;;;;;;;3.20;2.30;;;10.70;99.90;;;;;;6280697;22;20164;-38
2023/08/07 00:34:36;;;;;;;2.53;2.07;;;10.70;99.90;;;;;;6309330;22;20429;-39
2023/08/07 00:37:01;;;;;;;4.37;2.27;;;10.70;99.90;;;;;;6281746;22;20391;-39
2023/08/07 00:39:27;;;;;;;2.93;1.70;;;10.70;99.90;;;;;;6309163;22;20422;-39
2023/08/07 00:41:53;;;;;;;4.07;2.07;;;10.70;99.90;;;;;;6309414;22;20174;-38
2023/08/07 00:44:18;;;;;;;3.97;2.33;;;10.70;99.90;;;;;;6310535;22;20147;-36
2023/08/07 00:46:44;;;;;;;6.57;2.57;;;10.70;99.90;;;;;;6310189;22;20176;-44
2023/08/07 00:49:11;;;;;;;4.33;2.37;;;10.70;99.90;;;;;;6307284;22;20162;-44
2023/08/07 00:51:37;;;;;;;3.60;2.00;;;10.60;99.90;;;;;;6309195;22;20172;-45
2023/08/07 00:54:04;;;;;;;3.83;2.10;;;10.60;99.90;;;;;;6308291;22;20465;-44
2023/08/07 00:56:33;;;;;;;2.73;1.90;;;10.60;99.90;;;;;;6305820;22;20355;-45
2023/08/07 00:58:59;;;;;;;3.80;2.10;;;10.60;99.90;;;;;;6307767;22;20440;-44
2023/08/07 01:01:25;;;;;;;3.10;1.97;;;10.60;99.90;;;;;;6279732;22;20382;-44
2023/08/07 01:03:50;;;;;;;4.00;1.60;;;10.50;99.90;;;;;;6306755;22;20158;-45
2023/08/07 01:06:16;;;;;;;4.77;1.97;;;10.50;99.90;;;;;;6306438;22;20406;-44
2023/08/07 01:08:42;;;;;;;4.33;2.20;;;10.60;99.90;;;;;;6278061;22;20211;-44
2023/08/07 01:11:43;;;;;;;4.07;2.20;;;10.60;99.90;;;;;;6305913;22;20685;-45
2023/08/07 01:14:19;;;;;;;4.03;2.10;;;10.60;99.90;;;;;;6278307;22;20622;-45
2023/08/07 01:16:52;;;;;;;5.50;2.10;;;10.60;99.90;;;;;;6279566;22;20451;-45
2023/08/07 01:19:28;;;;;;;4.17;2.53;;;10.60;99.90;;;;;;6306421;22;20405;-44
2023/08/07 01:28:14;;;;;;;8.13;2.50;;;10.70;99.90;;;;;;6308017;22;20453;-44
2023/08/07 01:30:43;;;;;;;4.60;2.47;;;10.70;99.90;;;;;;6305018;22;20422;-44
2023/08/07 01:33:10;;;;;;;2.47;2.00;;;10.70;99.90;;;;;;6307381;22;20806;-44
2023/08/07 01:35:42;;;;;;;2.90;2.20;;;10.70;99.90;;;;;;6254753;22;20823;-45
2023/08/07 01:38:08;;;;;;;4.10;2.20;;;10.70;99.90;;;;;;6308644;22;20382;-45
2023/08/07 01:40:35;;;;;;;4.23;2.60;;;10.70;99.90;;;;;;6280257;22;20369;-45
2023/08/07 01:43:00;;;;;;;4.33;1.90;;;10.70;99.90;;;;;;6278867;22;20308;-45
2023/08/07 01:45:28;;;;;;;3.27;2.10;;;10.70;99.90;;;;;;6249751;22;20390;-46
2023/08/07 01:47:53;;;;;;;3.60;2.13;;;10.70;99.90;;;;;;6302137;22;20156;-45
2023/08/07 01:50:20;;;;;;;4.40;1.90;;;10.80;99.90;;;;;;6301388;22;20436;-45
2023/08/07 01:52:49;;;;;;;3.37;2.10;;;10.80;99.90;;;;;;6276200;22;20132;-45
2023/08/07 01:55:16;;;;;;;2.57;1.90;;;10.80;99.90;;;;;;6303505;22;20354;-45
2023/08/07 01:57:41;;;;;;;2.13;1.70;;;10.80;99.90;;;;;;6304531;22;20383;-45
2023/08/07 02:00:08;;;;;;;4.33;2.50;;;10.80;99.90;;;;;;6304848;22;20398;-45
2023/08/07 02:02:34;;;;;;;5.70;2.10;;;10.90;99.90;;;;;;6307460;22;20224;-45
2023/08/07 02:05:00;;;;;;;4.40;2.40;;;10.90;99.90;;;;;;6308412;22;20569;-45
2023/08/07 02:07:28;;;;;;;2.30;2.00;;;10.80;99.90;;;;;;6307179;22;20465;-45
2023/08/07 02:09:54;;;;;;;3.50;2.37;;;10.90;98.40;;;;;;6307651;22;20262;-45
2023/08/07 02:12:20;;;;;;;5.03;2.50;;;10.90;65.70;;;;;;6308531;22;20382;-45
2023/08/07 02:14:45;;;;;;;4.67;1.80;;;10.90;84.30;;;;;;6308401;22;20536;-45
2023/08/07 02:17:11;;;;;;;3.87;2.10;;;10.90;74.80;;;;;;6307666;22;20243;-45
2023/08/07 02:19:37;;;;;;;4.33;2.17;;;10.90;50.00;;;;;;6306091;22;20144;-45
2023/08/07 02:22:03;;;;;;;2.80;1.63;;;10.90;30.20;;;;;;6305145;22;20425;-45
2023/08/07 02:24:29;;;;;;;3.93;2.40;;;11.00;14.00;;;;;;6306304;22;20163;-45
2023/08/07 02:26:54;;;;;;;5.77;2.80;;;11.00;21.30;;;;;;6306512;22;20855;-45
2023/08/07 02:29:20;;;;;;;3.67;2.07;;;11.00;16.50;;;;;;6305543;22;20282;-45
2023/08/07 02:31:46;;;;;;;6.07;2.20;;;11.00;5.10;;;;;;6304628;22;20129;-45
2023/08/07 02:34:11;;;;;;;3.70;2.00;;;11.00;1.00;;;;;;6306647;22;20144;-45
2023/08/07 02:36:37;;;;;;;8.10;2.10;;;11.00;1.00;;;;;;6308559;22;20185;-45
2023/08/07 02:39:04;;;;;;;3.20;1.83;;;11.00;1.00;;;;;;6307449;22;20159;-45
2023/08/07 02:41:30;;;;;;;3.30;1.90;;;11.10;1.00;;;;;;6279755;22;20210;-44
2023/08/07 02:43:56;;;;;;;4.30;2.17;;;11.10;1.00;;;;;;6307348;22;20347;-45
2023/08/07 02:46:22;;;;;;;2.83;2.30;;;11.10;1.00;;;;;;6308057;22;20397;-45
2023/08/07 02:48:47;;;;;;;2.83;2.40;;;11.10;1.00;;;;;;6308337;22;20520;-45
2023/08/07 02:51:13;;;;;;;3.30;2.23;;;11.00;1.00;;;;;;6307131;22;20577;-45
2023/08/07 02:53:38;;;;;;;5.63;1.83;;;11.00;1.00;;;;;;6307281;22;20492;-45
2023/08/07 02:56:04;;;;;;;5.07;2.40;;;11.10;1.00;;;;;;6307319;22;20167;-45
2023/08/07 02:58:30;;;;;;;7.40;2.83;;;11.10;1.00;;;;;;6305896;22;20150;-45
2023/08/07 03:00:56;;;;;;;3.57;2.20;;;11.00;1.00;;;;;;6306485;22;20155;-45
2023/08/07 03:03:21;;;;;;;4.13;2.27;;;11.10;1.00;;;;;;6306594;22;20246;-45
2023/08/07 03:05:51;;;;;;;4.20;2.77;;;11.10;99.90;;;;;;6304965;22;20509;-46
2023/08/07 03:08:16;;;;;;;6.87;2.50;;;11.10;99.90;;;;;;6305463;22;20152;-45
2023/08/07 03:10:42;;;;;;;4.40;2.83;;;11.10;99.90;;;;;;6303380;22;20402;-45
2023/08/07 03:13:08;;;;;;;4.87;2.30;;;11.10;99.90;;;;;;6303762;22;20148;-45
2023/08/07 03:15:33;;;;;;;5.57;2.40;;;11.10;99.90;;;;;;6305246;22;20510;-45
2023/08/07 03:17:59;;;;;;;6.20;2.70;;;11.20;99.90;;;;;;6305355;22;20491;-45
2023/08/07 03:20:24;;;;;;;4.73;2.40;;;11.10;99.90;;;;;;6304565;22;20178;-45
2023/08/07 03:22:50;;;;;;;4.97;2.20;;;11.10;99.90;;;;;;6305933;22;20159;-45
2023/08/07 03:25:16;;;;;;;4.47;2.13;;;11.00;99.90;;;;;;6306882;22;20136;-45
2023/08/07 03:27:42;;;;;;;3.77;2.13;;;11.00;99.90;;;;;;6279283;22;20491;-45
2023/08/07 03:30:07;;;;;;;5.63;2.00;;;11.00;99.90;;;;;;6279516;22;20523;-45
2023/08/07 03:32:33;;;;;;;3.30;2.40;;;11.00;99.90;;;;;;6306237;22;20152;-45
2023/08/07 03:34:59;;;;;;;3.47;2.53;;;11.00;99.90;;;;;;6277739;22;20367;-45
2023/08/07 03:37:24;;;;;;;4.30;2.00;;;10.90;1.00;;;;;;6305344;22;20510;-45
2023/08/07 03:39:50;;;;;;;4.50;2.00;;;10.90;1.00;;;;;;6307418;22;20152;-45
2023/08/07 03:42:16;;;;;;;6.33;2.27;;;10.90;1.00;;;;;;6305396;22;20372;-44
2023/08/07 03:44:41;;;;;;;3.53;2.50;;;10.90;1.00;;;;;;6303569;22;20435;-45
2023/08/07 03:47:07;;;;;;;5.57;3.00;;;10.90;1.00;;;;;;6304934;22;20234;-45
2023/08/07 03:49:33;;;;;;;5.13;2.60;;;11.00;1.00;;;;;;6277125;22;20246;-45
2023/08/07 03:51:59;;;;;;;3.40;2.13;;;10.90;1.00;;;;;;6306036;22;20179;-45
2023/08/07 03:54:25;;;;;;;3.67;2.07;;;10.90;1.00;;;;;;6304251;22;20187;-45
2023/08/07 03:56:51;;;;;;;6.50;2.50;;;10.90;1.00;;;;;;6304916;22;20413;-45
2023/08/07 03:59:17;;;;;;;4.30;2.30;;;10.90;1.00;;;;;;6305993;22;20389;-45
2023/08/07 04:01:43;;;;;;;3.00;2.07;;;10.90;1.00;;;;;;6305726;22;20350;-45
2023/08/07 04:04:08;;;;;;;3.60;1.97;;;10.80;1.00;;;;;;6305720;22;20498;-45
2023/08/07 04:06:34;;;;;;;4.03;2.33;;;10.80;1.00;;;;;;6306307;22;20374;-45
2023/08/07 04:09:00;;;;;;;3.43;2.03;;;10.80;1.00;;;;;;6306803;22;20152;-45
2023/08/07 04:11:27;;;;;;;4.03;2.60;;;10.70;1.00;;;;;;6305971;22;20542;-45
2023/08/07 04:13:52;;;;;;;3.37;1.80;;;10.70;1.00;;;;;;6305774;22;20654;-45
2023/08/07 04:16:18;;;;;;;6.80;2.27;;;10.70;1.00;;;;;;6279519;22;20375;-45
2023/08/07 04:18:44;;;;;;;4.10;2.20;;;10.70;1.00;;;;;;6279009;22;20182;-46
2023/08/07 04:21:09;;;;;;;3.40;2.50;;;10.70;1.00;;;;;;6305620;22;20156;-45
2023/08/07 04:23:35;;;;;;;6.50;2.30;;;10.70;1.00;;;;;;6306270;22;20183;-45
2023/08/07 04:26:00;;;;;;;6.03;2.13;;;10.70;1.00;;;;;;6306279;22;20200;-44
2023/08/07 04:28:28;;;;;;;8.10;2.70;;;10.70;1.00;;;;;;6307683;22;20270;-44
2023/08/07 04:30:54;;;;;;;5.77;2.10;;;10.70;1.00;;;;;;6308292;22;20249;-45
2023/08/07 04:33:20;;;;;;;3.23;2.03;;;10.70;1.00;;;;;;6308734;22;20390;-45
2023/08/07 04:35:46;;;;;;;6.20;2.67;;;10.70;1.00;;;;;;6307207;22;20249;-45
2023/08/07 04:38:15;;;;;;;3.40;1.90;;;10.70;1.00;;;;;;6307738;22;20382;-45
2023/08/07 04:40:48;;;;;;;2.80;2.13;;;10.70;1.00;;;;;;6307763;22;20370;-44
2023/08/07 04:43:15;;;;;;;3.07;2.13;;;10.60;1.00;;;;;;6306248;22;20429;-44
2023/08/07 04:45:41;;;;;;;4.13;2.70;;;10.60;1.00;;;;;;6306709;22;20415;-44
2023/08/07 04:48:08;;;;;;;4.57;2.27;;;10.60;1.00;;;;;;6306580;22;20408;-45
2023/08/07 04:50:34;;;;;;;4.00;2.40;;;10.60;1.00;;;;;;6308640;22;20426;-45
2023/08/07 04:53:00;;;;;;;6.00;2.73;;;10.60;1.00;;;;;;6305949;22;20391;-44
2023/08/07 04:55:25;;;;;;;6.27;2.70;;;10.60;1.00;;;;;;6308400;22;20355;-45
2023/08/07 04:57:54;;;;;;;14.43;5.93;;;10.70;1.00;;;;;;6255175;22;20160;-44
2023/08/07 05:00:21;;;;;;;6.97;3.37;;;10.80;99.90;;;;;;6308710;22;20536;-45
2023/08/07 05:02:48;;;;;;;9.37;3.83;;;11.20;59.20;;;;;;6308045;22;20428;-45
2023/08/07 05:05:14;;;;;;;9.73;4.07;;;11.40;18.00;;;;;;6305713;22;20394;-45
2023/08/07 05:07:41;;;;;;;6.53;2.53;;;11.60;1.00;;;;;;6306235;22;20408;-45
2023/08/07 05:10:07;;;;;;;8.90;3.90;;;11.70;99.90;;;;;;6308614;22;20425;-45
2023/08/07 05:12:33;;;;;;;7.00;3.30;;;11.80;1.00;;;;;;6307725;22;20379;-45
2023/08/07 05:14:58;;;;;;;3.47;2.50;;;11.90;99.90;;;;;;6280790;22;20842;-45
2023/08/07 05:17:24;;;;;;;4.70;2.50;;;12.00;56.20;;;;;;6307118;22;20206;-45
2023/08/07 05:19:50;;;;;;;4.70;2.77;;;12.10;1.00;;;;;;6307344;22;20132;-45
2023/08/07 05:22:16;;;;;;;6.63;2.80;;;12.20;1.00;;;;;;6278342;22;20433;-45
2023/08/07 05:24:43;;;;;;;5.07;2.77;;;12.30;1.00;;;;;;6306191;22;20167;-45
2023/08/07 05:27:09;;;;;;;7.07;3.00;;;12.40;1.00;;;;;;6306365;22;20502;-46
2023/08/07 05:29:43;;;;;;;3.97;2.33;;;12.50;1.00;;;;;;6305947;22;20410;-45
2023/08/07 05:32:17;;;;;;;5.40;2.60;;;12.60;54.10;;;;;;6281328;22;20699;-46
2023/08/07 05:34:43;;;;;;;5.20;2.77;;;12.60;99.90;;;;;;6305352;22;20405;-44
2023/08/07 05:37:09;;;;;;;3.87;2.63;;;12.70;80.70;;;;;;6306212;22;20378;-45
2023/08/07 05:39:35;;;;;;;3.37;1.90;;;12.70;1.00;;;;;;6305882;22;20482;-44
2023/08/07 05:42:01;;;;;;;3.30;2.40;;;12.70;1.00;;;;;;6302711;22;20519;-44
2023/08/07 05:44:27;;;;;;;3.03;1.77;;;12.70;1.00;;;;;;6303200;22;20441;-45
2023/08/07 05:46:52;;;;;;;3.93;2.10;;;12.70;1.00;;;;;;6305305;22;20473;-44
2023/08/07 05:49:18;;;;;;;4.00;2.50;;;12.70;99.90;;;;;;6305174;22;20151;-45
2023/08/07 05:51:44;;;;;;;3.10;2.00;;;12.70;1.00;;;;;;6305249;22;20600;-44
2023/08/07 05:54:09;;;;;;;3.77;2.20;;;12.70;99.90;;;;;;6307161;22;20780;-46
2023/08/07 05:56:37;;;;;;;3.93;2.17;;;12.80;1.00;;;;;;6305640;22;20128;-45
2023/08/07 05:59:03;;;;;;;3.20;1.97;;;12.80;99.90;;;;;;6305514;22;20162;-46
2023/08/07 06:01:31;;;;;;;3.73;2.50;;;12.90;99.90;;;;;;6305718;22;20489;-46
2023/08/07 06:03:57;;;;;;;4.33;2.43;;;12.80;99.90;;;;;;6305795;22;20148;-45
2023/08/07 06:06:25;;;;;;;4.07;2.37;;;13.00;99.90;;;;;;6304536;22;20378;-47
2023/08/07 06:08:51;;;;;;;3.17;1.67;;;13.10;22.60;;;;;;6278708;22;20520;-47
2023/08/07 06:11:17;;;;;;;5.63;2.37;;;13.20;99.90;;;;;;6304472;22;20463;-47
2023/08/07 06:13:42;;;;;;;12.07;7.07;;;13.10;99.90;;;;;;6305984;22;20793;-44
2023/08/07 06:16:08;;;;;;;9.00;3.60;;;13.10;1.00;;;;;;6306704;22;20378;-45
2023/08/07 06:18:34;;;;;;;4.20;2.57;;;13.10;97.90;;;;;;6280561;22;20500;-45
2023/08/07 06:21:00;;;;;;;4.47;2.50;;;13.00;1.00;;;;;;6307377;22;20139;-46
2023/08/07 06:23:25;;;;;;;5.40;2.43;;;12.90;99.90;;;;;;6306121;22;20132;-46
2023/08/07 06:25:51;;;;;;;208.87;30.50;;;12.90;99.90;;;;;;6305265;22;20527;-46
2023/08/07 06:28:17;;;;;;;4.70;2.47;;;12.80;99.90;;;;;;6305494;22;20544;-45
2023/08/07 06:30:42;;;;;;;3.10;2.43;;;12.80;99.90;;;;;;6276752;22;20199;-46
2023/08/07 06:33:08;;;;;;;3.53;2.43;;;12.90;99.90;;;;;;6304479;22;20159;-45
2023/08/07 06:35:40;;;;;;;5.23;3.90;;;12.80;1.00;;;;;;6306334;22;20239;-45
2023/08/07 06:38:06;;;;;;;5.00;2.20;;;12.90;1.00;;;;;;6277783;22;20147;-45
2023/08/07 06:40:31;;;;;;;3.80;2.30;;;12.80;1.00;;;;;;6308387;22;20672;-45
2023/08/07 06:42:57;;;;;;;4.33;2.80;;;12.90;99.90;;;;;;6279846;22;20745;-45
2023/08/07 06:45:23;;;;;;;6.93;2.73;;;12.90;1.00;;;;;;6305736;22;20183;-45
2023/08/07 06:47:48;;;;;;;2.60;2.00;;;12.90;1.00;;;;;;6306818;22;20164;-45
2023/08/07 06:50:14;;;;;;;5.33;1.97;;;12.90;19.80;;;;;;6304576;22;20225;-45
2023/08/07 06:52:40;;;;;;;4.70;2.00;;;13.00;44.00;;;;;;6305822;22;20473;-46
2023/08/07 06:55:06;;;;;;;4.23;2.30;;;13.10;99.90;;;;;;6304041;22;20393;-45
2023/08/07 06:57:32;;;;;;;2.97;2.60;;;13.10;1.00;;;;;;6302737;22;20484;-45
2023/08/07 06:59:58;;;;;;;7.00;2.87;;;13.10;30.20;;;;;;6274868;22;20373;-45
2023/08/07 07:02:23;;;;;;;3.70;1.80;;;13.30;1.00;;;;;;6302620;22;20515;-45
2023/08/07 07:04:49;;;;;;;4.57;2.23;;;13.30;99.90;;;;;;6304559;22;20531;-45
2023/08/07 07:07:15;;;;;;;4.43;2.50;;;13.40;99.90;;;;;;6276879;22;20226;-45
2023/08/07 07:09:41;;;;;;;3.77;2.33;;;13.50;1.00;;;;;;6303962;22;20189;-45
2023/08/07 07:12:07;;;;;;;4.93;2.50;;;13.50;1.00;;;;;;6307708;22;20481;-45
2023/08/07 07:14:33;;;;;;;2.93;1.90;;;13.40;74.60;;;;;;6280594;22;20136;-45
2023/08/07 07:17:00;;;;;;;2.57;1.90;;;13.50;1.00;;;;;;6307430;22;20417;-45
2023/08/07 07:19:26;;;;;;;5.03;2.40;;;13.40;1.00;;;;;;6307339;22;20386;-45
2023/08/07 07:21:51;;;;;;;3.53;2.30;;;13.40;99.90;;;;;;6306815;22;20517;-45
2023/08/07 07:24:17;;;;;;;3.40;2.17;;;13.80;1.00;;;;;;6306593;22;20164;-44
2023/08/07 07:26:43;;;;;;;5.87;3.40;;;14.20;99.90;;;;;;6305619;22;20240;-45
2023/08/07 07:29:09;;;;;;;3.23;1.83;;;14.50;1.00;;;;;;6308186;22;20159;-45
2023/08/07 07:31:34;;;;;;;4.47;2.50;;;14.90;99.90;;;;;;6280508;22;20228;-45
2023/08/07 07:34:00;;;;;;;2.60;1.60;;;15.10;99.90;;;;;;6280149;22;20191;-45
2023/08/07 07:36:25;;;;;;;3.67;2.30;;;15.10;99.90;;;;;;6306319;22;20147;-45
2023/08/07 07:38:51;;;;;;;3.47;2.10;;;15.30;1.00;;;;;;6306759;22;20200;-44
2023/08/07 07:41:17;;;;;;;3.50;2.20;;;15.50;1.00;;;;;;6304910;22;20143;-44
2023/08/07 07:43:43;;;;;;;3.73;1.97;;;15.60;1.00;;;;;;6304681;22;20156;-45
2023/08/07 07:46:09;;;;;;;2.70;1.87;;;15.60;99.90;;;;;;6304167;22;20152;-44
2023/08/07 07:48:34;;;;;;;3.63;2.27;;;15.50;99.90;;;;;;6301479;22;20152;-44
2023/08/07 07:51:01;;;;;;;2.13;1.60;;;15.30;99.90;;;;;;6303045;22;20941;-45
2023/08/07 07:53:27;;;;;;;4.30;1.60;;;15.30;99.90;;;;;;6303436;22;20585;-44
2023/08/07 07:55:53;;;;;;;3.57;1.87;;;15.40;99.90;;;;;;6307011;22;20378;-44
2023/08/07 07:58:20;;;;;;;3.93;2.10;;;15.60;99.90;;;;;;6306816;22;20385;-45
2023/08/07 08:00:46;;;;;;;4.33;1.70;;;15.70;99.90;;;;;;6305250;22;20175;-45
2023/08/07 08:03:12;;;;;;;5.90;2.00;;;15.70;99.90;;;;;;6305713;22;20409;-46
2023/08/07 08:05:38;;;;;;;3.90;1.87;;;15.80;99.90;;;;;;6306285;22;20138;-45
2023/08/07 08:08:05;;;;;;;2.23;1.80;;;15.90;99.90;;;;;;6307465;22;20451;-45
2023/08/07 08:10:30;;;;;;;2.57;1.70;;;15.80;99.90;;;;;;6306935;22;20444;-45
2023/08/07 08:12:56;;;;;;;3.70;2.00;;;16.00;99.90;;;;;;6307286;22;20378;-45
2023/08/07 08:15:22;;;;;;;3.30;1.90;;;16.10;99.90;;;;;;6279787;22;20166;-46
2023/08/07 08:17:48;;;;;;;2.90;1.60;;;16.10;99.90;;;;;;6307038;22;20357;-45
2023/08/07 08:20:18;;;;;;;4.60;1.73;;;16.20;99.90;;;;;;6277599;22;20182;-45
2023/08/07 08:22:44;;;;;;;2.33;1.73;;;16.40;99.90;;;;;;6306163;22;20378;-44
2023/08/07 08:25:11;;;;;;;3.10;2.23;;;16.80;91.80;;;;;;6304540;22;20387;-45
2023/08/07 08:27:37;;;;;;;2.83;1.73;;;17.10;57.20;;;;;;6305095;22;20433;-45
2023/08/07 08:30:03;;;;;;;2.80;1.53;;;17.00;38.30;;;;;;6305039;22;20414;-45
2023/08/07 08:32:29;;;;;;;12.83;3.57;;;17.10;9.30;;;;;;6305515;22;20944;-45
2023/08/07 08:34:55;;;;;;;1.97;1.73;;;17.00;16.60;;;;;;6306231;22;20386;-46
2023/08/07 08:37:21;;;;;;;2.10;1.53;;;16.90;1.00;;;;;;6304721;22;20163;-46
2023/08/07 08:39:46;;;;;;;2.57;1.60;;;16.60;1.00;;;;;;6305789;22;20382;-46
2023/08/07 08:42:13;;;;;;;3.43;1.77;;;17.00;1.00;;;;;;6305794;22;20486;-47
2023/08/07 08:44:40;;;;;;;2.73;1.83;;;16.70;1.00;;;;;;6279025;22;20129;-47
2023/08/07 08:47:07;;;;;;;2.43;1.40;;;16.90;1.00;;;;;;6278187;22;20484;-47
2023/08/07 08:49:48;;;;;;;2.47;1.63;;;16.70;1.00;;;;;;6306112;22;20458;-45
2023/08/07 08:52:13;;;;;;;2.07;1.20;;;16.50;1.00;;;;;;6308204;22;20420;-48
2023/08/07 08:54:43;;;;;;;1.67;1.03;;;16.80;1.00;;;;;;6279357;22;20383;-45
2023/08/07 08:57:09;;;;;;;1.43;0.97;;;17.00;1.00;;;;;;6306944;22;20405;-45
2023/08/07 08:59:36;;;;;;;2.20;1.43;;;17.10;1.00;;;;;;6279794;22;20459;-45
2023/08/07 09:02:02;;;;;;;4.10;1.30;;;17.10;1.00;;;;;;6306410;22;20425;-45
2023/08/07 09:04:27;;;;;;;2.17;1.47;;;17.20;1.00;;;;;;6307400;22;21105;-45
2023/08/07 09:06:53;;;;;;;3.40;1.77;;;17.20;1.00;;;;;;6278615;22;20396;-45
2023/08/07 09:09:21;;;;;;;4.30;1.50;;;17.40;1.00;;;;;;6303818;22;20175;-45
2023/08/07 09:11:47;;;;;;;2.27;1.23;;;18.00;1.00;;;;;;6304634;22;20258;-45
2023/08/07 09:14:16;;;;;;;2.63;1.43;;;18.40;1.00;;;;;;6304678;22;20351;-45
2023/08/07 09:16:45;;;;;;;2.37;1.30;;;18.70;1.00;;;;;;6306172;22;20378;-45
2023/08/07 09:19:11;;;;;;;2.43;1.67;;;19.20;1.00;;;;;;6303495;22;20423;-45
2023/08/07 09:21:37;;;;;;;4.07;1.73;;;19.20;1.00;;;;;;6305004;22;20797;-45
2023/08/07 09:24:03;;;;;;;2.30;1.10;;;19.40;1.00;;;;;;6306271;22;20480;-45
2023/08/07 09:26:28;;;;;;;2.33;1.50;;;19.70;1.00;;;;;;6279651;22;20139;-45
2023/08/07 09:28:54;;;;;;;2.10;1.63;;;20.00;1.00;;;;;;6277670;22;20159;-45
2023/08/07 09:31:21;;;;;;;2.63;1.87;;;19.70;1.00;;;;;;6304349;22;20258;-45
2023/08/07 09:33:48;;;;;;;1.63;1.40;;;19.60;1.00;;;;;;6305893;22;20218;-46
2023/08/07 09:36:14;;;;;;;2.77;1.70;;;19.50;1.00;;;;;;6304589;22;20379;-45
2023/08/07 09:38:40;;;;;;;1.97;1.03;;;19.30;1.00;;;;;;6305790;22;20414;-46
2023/08/07 09:41:05;;;;;;;2.87;1.30;;;19.50;1.00;;;;;;6306580;22;20569;-47
2023/08/07 09:43:35;;;;;;;2.77;2.00;;;19.50;1.00;;;;;;6304603;22;20163;-46
2023/08/07 09:46:05;;;;;;;1.80;1.40;;;19.00;1.00;;;;;;6277216;22;20160;-46
2023/08/07 09:48:33;;;;;;;2.17;1.50;;;18.50;1.00;;;;;;6305350;22;20400;-46
2023/08/07 09:51:03;;;;;;;2.27;1.37;;;17.90;1.00;;;;;;6304975;22;20413;-46
2023/08/07 09:53:30;;;;;;;2.53;1.50;;;17.80;1.00;;;;;;6303574;22;20634;-46
2023/08/07 09:55:55;;;;;;;2.00;1.33;;;17.60;1.00;;;;;;6276635;22;20390;-46
2023/08/07 09:58:21;;;;;;;2.10;1.30;;;17.90;1.00;;;;;;6305178;22;20819;-46
2023/08/07 10:00:47;;;;;;;2.70;1.67;;;17.90;1.00;;;;;;6276944;22;20546;-46
2023/08/07 10:03:14;;;;;;;3.70;1.30;;;17.70;1.00;;;;;;6276730;22;20191;-46
2023/08/07 10:05:41;;;;;;;3.13;1.60;;;17.60;1.00;;;;;;6304420;22;20450;-46
2023/08/07 10:08:06;;;;;;;2.27;1.50;;;17.50;1.00;;;;;;6276301;22;20390;-46
2023/08/07 10:10:34;;;;;;;2.33;1.70;;;17.40;1.00;;;;;;6274984;22;20445;-46
2023/08/07 10:13:01;;;;;;;2.93;1.50;;;17.50;1.00;;;;;;6302599;22;20193;-46
2023/08/07 10:15:29;;;;;;;2.80;1.67;;;17.10;1.00;;;;;;6303675;22;20374;-46
2023/08/07 10:17:54;;;;;;;2.10;1.40;;;17.00;1.00;;;;;;6252586;22;20363;-46
2023/08/07 10:20:21;;;;;;;3.50;1.70;;;17.70;1.00;;;;;;6306791;22;20377;-46
2023/08/07 10:22:46;;;;;;;3.27;1.77;;;18.90;1.00;;;;;;6280210;22;20155;-46
2023/08/07 10:25:12;;;;;;;2.30;1.77;;;20.10;1.00;;;;;;6279043;22;20414;-46
2023/08/07 10:27:40;;;;;;;1.70;1.40;;;19.60;1.00;;;;;;6278839;22;20230;-46
2023/08/07 10:30:07;;;;;;;2.67;1.67;;;18.90;1.00;;;;;;6277821;22;20430;-46
2023/08/07 10:32:33;;;;;;;3.00;1.50;;;19.40;1.00;;;;;;6305412;22;20427;-46
2023/08/07 10:35:04;;;;;;;2.47;1.67;;;18.90;1.00;;;;;;6305981;22;20402;-46
2023/08/07 10:37:46;;;;;;;2.43;1.90;;;18.60;1.00;;;;;;6304686;22;20378;-46
2023/08/07 10:40:12;;;;;;;1.90;1.67;;;18.40;1.00;;;;;;6304672;22;20672;-46
2023/08/07 10:42:50;;;;;;;2.73;2.20;;;18.20;1.00;;;;;;6304002;22;20506;-46
2023/08/07 10:45:22;;;;;;;1.63;1.33;;;18.50;1.00;;;;;;6306630;22;20382;-47
2023/08/07 10:48:07;;;;;;;2.57;1.97;;;18.60;1.00;;;;;;6306451;22;20443;-46
2023/08/07 10:50:53;;;;;;;2.70;1.47;;;18.30;1.00;;;;;;6305678;22;20401;-46
2023/08/07 10:53:35;;;;;;;4.60;2.27;;;18.00;1.00;;;;;;6303870;22;20354;-46
2023/08/07 10:56:11;;;;;;;2.40;1.57;;;18.10;1.00;;;;;;6306616;22;20372;-46
2023/08/07 10:58:39;;;;;;;3.03;1.57;;;18.00;1.00;;;;;;6277544;22;20761;-46
2023/08/07 11:01:26;;;;;;;3.40;2.57;;;17.90;1.00;;;;;;6303950;22;20403;-45
2023/08/07 11:03:53;;;;;;;1.60;1.50;;;18.30;1.00;;;;;;6302604;22;20385;-45
2023/08/07 11:06:27;;;;;;;1.93;1.53;;;19.00;1.00;;;;;;6306129;22;20661;-45
2023/08/07 11:08:53;;;;;;;2.60;1.60;;;19.50;1.00;;;;;;6304361;22;20404;-45
2023/08/07 11:11:18;;;;;;;2.60;1.97;;;19.70;1.00;;;;;;6301749;22;20402;-45
2023/08/07 11:13:44;;;;;;;2.20;1.53;;;19.30;1.00;;;;;;6302270;22;20438;-45
2023/08/07 11:16:11;;;;;;;1.70;1.50;;;18.90;1.00;;;;;;6303842;22;20155;-45
2023/08/07 11:18:40;;;;;;;2.73;1.40;;;18.90;1.00;;;;;;6306285;22;20485;-45
2023/08/07 11:21:06;;;;;;;2.40;1.80;;;18.80;1.00;;;;;;6304316;22;20378;-47
2023/08/07 11:23:32;;;;;;;2.30;1.43;;;18.70;1.00;;;;;;6275757;22;20543;-45
2023/08/07 11:25:58;;;;;;;2.70;1.67;;;18.50;1.00;;;;;;6303378;22;20813;-45
2023/08/07 11:28:24;;;;;;;2.07;1.80;;;17.90;1.00;;;;;;6278722;22;20223;-45
2023/08/07 11:30:55;;;;;;;2.97;1.90;;;17.60;1.00;;;;;;6306600;22;20426;-45
2023/08/07 11:33:25;;;;;;;2.17;1.57;;;17.80;1.00;;;;;;6305539;22;20884;-45
2023/08/07 11:35:51;;;;;;;4.43;1.60;;;18.00;1.00;;;;;;6305688;22;20728;-45
2023/08/07 11:38:40;;;;;;;2.23;2.00;;;17.80;1.00;;;;;;6306331;22;20378;-47
2023/08/07 11:41:07;;;;;;;4.00;1.60;;;17.70;1.00;;;;;;6303958;22;20384;-45
2023/08/07 11:43:37;;;;;;;4.20;2.13;;;17.10;1.00;;;;;;6299783;22;20379;-45
2023/08/07 11:46:04;;;;;;;5.10;2.10;;;16.80;1.00;;;;;;6304117;22;20480;-45
2023/08/07 11:48:32;;;;;;;1.97;1.63;;;16.60;1.00;;;;;;6305415;22;20378;-45
2023/08/07 11:50:58;;;;;;;3.80;1.70;;;16.30;1.00;;;;;;6306724;22;20398;-45
2023/08/07 11:53:31;;;;;;;2.43;2.00;;;16.20;1.00;;;;;;6277715;22;20358;-45
2023/08/07 11:56:09;;;;;;;4.30;2.40;;;16.20;1.00;;;;;;6276644;22;20404;-45
2023/08/07 11:58:42;;;;;;;2.37;2.17;;;16.20;1.00;;;;;;6307488;22;20370;-45
2023/08/07 12:01:16;;;;;;;1.80;1.33;;;16.10;1.00;;;;;;6307322;22;20694;-45
2023/08/07 12:03:50;;;;;;;3.17;1.77;;;16.00;1.00;;;;;;6308018;22;20405;-44
2023/08/07 12:06:16;;;;;;;2.63;1.80;;;16.10;1.00;;;;;;6275972;22;20485;-45
2023/08/07 12:08:42;;;;;;;2.37;2.10;;;16.00;1.00;;;;;;6301590;22;20424;-45
2023/08/07 12:11:12;;;;;;;3.57;2.13;;;15.90;1.00;;;;;;6304947;22;20172;-45
2023/08/07 12:13:40;;;;;;;2.80;2.30;;;15.90;1.00;;;;;;6276993;22;20386;-45
2023/08/07 12:16:06;;;;;;;5.30;4.73;;;15.80;1.00;;;;;;6303474;22;20432;-45
2023/08/07 12:18:32;;;;;;;5.27;2.30;;;15.80;1.00;;;;;;6276753;22;20386;-45
2023/08/07 12:21:03;;;;;;;3.80;2.67;;;15.70;1.00;;;;;;6302314;22;20354;-43
2023/08/07 12:23:32;;;;;;;4.17;2.57;;;15.70;99.90;;;;;;6303523;22;20650;-45
2023/08/07 12:25:57;;;;;;;2.83;2.27;;;15.60;99.90;;;;;;6302290;22;20385;-45
2023/08/07 12:28:23;;;;;;;2.67;1.90;;;15.40;1.00;;;;;;6305145;22;20461;-45
2023/08/07 12:30:50;;;;;;;3.40;1.80;;;15.50;1.00;;;;;;6305581;22;20190;-44
2023/08/07 12:33:16;;;;;;;2.77;2.27;;;15.50;99.90;;;;;;6278616;22;20201;-44
2023/08/07 12:35:41;;;;;;;2.93;2.10;;;15.70;99.90;;;;;;6305572;22;20599;-45
2023/08/07 12:38:09;;;;;;;2.40;1.73;;;15.90;99.90;;;;;;6305069;22;20156;-45
2023/08/07 12:40:36;;;;;;;2.43;1.87;;;16.10;99.90;;;;;;6305642;22;20160;-46
2023/08/07 12:43:02;;;;;;;4.43;2.03;;;16.00;99.90;;;;;;6304431;22;20385;-46
2023/08/07 12:45:28;;;;;;;3.10;1.87;;;16.10;99.90;;;;;;6278426;22;20774;-46
2023/08/07 12:47:54;;;;;;;1.97;1.77;;;15.90;99.90;;;;;;6304402;22;20405;-46
2023/08/07 12:50:20;;;;;;;2.27;1.83;;;15.80;99.90;;;;;;6302877;22;20254;-46
2023/08/07 12:52:45;;;;;;;3.13;2.07;;;15.60;99.90;;;;;;6304634;22;20155;-46
2023/08/07 12:55:14;;;;;;;2.23;2.03;;;15.50;99.90;;;;;;6304739;22;20170;-46
2023/08/07 12:57:42;;;;;;;3.33;1.90;;;15.50;99.90;;;;;;6303570;22;20359;-46